Time;durP1;ratioP1;P1;durP2;ratioP2;P2;SDS_P1;SDS_P2;PMS_P1;PMS_P2;Temp;Humidity;BMP_temperature;BMP_pressure;BME280_temperature;BME280_humidity;BME280_pressure;Samples;Min_cycle;Max_cycle;Signal;HPM_P1;HPM_P2
2023/05/16 00:01:49;;;;;;;15.70;2.40;;;;;;;6.82;100.00;102175.22;5135235;27;20087;-76
2023/05/16 00:04:16;;;;;;;25.10;2.30;;;;;;;6.81;100.00;102180.59;5135114;27;20023;-75
2023/05/16 00:06:42;;;;;;;13.82;2.67;;;;;;;6.78;100.00;102172.84;5135037;27;20059;-75
2023/05/16 00:09:07;;;;;;;11.10;1.95;;;;;;;6.74;100.00;102174.78;5134896;27;20047;-75
2023/05/16 00:11:32;;;;;;;16.30;2.40;;;;;;;6.68;100.00;102175.94;5135688;27;20459;-75
2023/05/16 00:13:58;;;;;;;8.38;2.05;;;;;;;6.63;100.00;102178.00;5135257;27;20033;-76
2023/05/16 00:16:24;;;;;;;14.02;2.30;;;;;;;6.58;100.00;102173.88;5135757;27;20090;-76
2023/05/16 00:18:52;;;;;;;10.05;1.85;;;;;;;6.52;100.00;102172.41;5134813;27;20034;-76
2023/05/16 00:21:17;;;;;;;17.00;2.20;;;;;;;6.49;100.00;102176.06;5135217;27;20531;-77
2023/05/16 00:23:43;;;;;;;12.25;2.50;;;;;;;6.45;100.00;102169.22;5135343;27;20047;-76
2023/05/16 00:26:08;;;;;;;9.63;2.00;;;;;;;6.41;100.00;102169.47;5133707;27;20038;-76
2023/05/16 00:28:34;;;;;;;15.38;2.38;;;;;;;6.39;100.00;102169.56;5134968;27;20115;-76
2023/05/16 00:31:00;;;;;;;12.05;2.33;;;;;;;6.38;100.00;102177.56;5134839;27;20030;-76
2023/05/16 00:33:25;;;;;;;13.95;2.13;;;;;;;6.39;100.00;102176.59;5135224;27;20035;-76
2023/05/16 00:35:52;;;;;;;13.63;2.42;;;;;;;6.41;100.00;102180.03;5134584;27;20392;-77
2023/05/16 00:38:18;;;;;;;10.88;2.17;;;;;;;6.34;100.00;102177.72;5134003;27;20141;-77
2023/05/16 00:40:43;;;;;;;14.65;2.50;;;;;;;6.35;100.00;102178.56;5134651;27;20538;-77
2023/05/16 00:43:08;;;;;;;10.68;2.45;;;;;;;6.34;100.00;102180.38;5134540;27;20047;-76
2023/05/16 00:45:34;;;;;;;13.98;2.05;;;;;;;6.36;100.00;102180.28;5134415;27;20035;-77
2023/05/16 00:47:59;;;;;;;20.52;3.28;;;;;;;6.37;100.00;102175.84;5134383;27;20023;-76
2023/05/16 00:50:25;;;;;;;14.95;2.25;;;;;;;6.35;100.00;102170.63;5134219;27;20035;-76
2023/05/16 00:52:50;;;;;;;10.95;2.13;;;;;;;6.34;100.00;102176.84;5134310;27;20028;-77
2023/05/16 00:55:15;;;;;;;17.83;2.03;;;;;;;6.32;100.00;102173.44;5134327;27;20027;-76
2023/05/16 00:57:41;;;;;;;14.20;2.85;;;;;;;6.30;100.00;102176.16;5134305;27;20027;-76
2023/05/16 01:00:10;;;;;;;17.25;2.75;;;;;;;6.29;100.00;102173.59;5134144;27;20038;-77
2023/05/16 01:02:36;;;;;;;17.55;2.80;;;;;;;6.33;100.00;102170.72;5132638;27;20054;-77
2023/05/16 01:05:07;;;;;;;12.05;2.35;;;;;;;6.40;100.00;102179.16;5134071;27;20467;-76
2023/05/16 01:07:33;;;;;;;12.35;2.10;;;;;;;6.44;100.00;102178.09;5134579;27;20180;-77
2023/05/16 01:09:58;;;;;;;10.85;2.38;;;;;;;6.44;100.00;102179.88;5134963;27;20031;-77
2023/05/16 01:12:31;;;;;;;14.20;2.10;;;;;;;6.39;100.00;102172.19;5134449;27;20061;-76
2023/05/16 01:15:07;;;;;;;15.13;2.13;;;;;;;6.38;100.00;102172.28;5134447;27;20212;-76
2023/05/16 01:17:52;;;;;;;23.13;2.30;;;;;;;6.38;100.00;102177.56;5134502;27;20102;-78
2023/05/16 01:20:41;;;;;;;14.20;1.98;;;;;;;6.38;100.00;102172.28;5134707;27;20027;-77
2023/05/16 01:23:15;;;;;;;19.83;2.47;;;;;;;6.34;100.00;102182.13;5134442;28;20050;-74
2023/05/16 01:25:47;;;;;;;8.25;1.88;;;;;;;6.30;100.00;102181.44;5132941;28;20364;-75
2023/05/16 01:28:15;;;;;;;15.00;1.77;;;;;;;6.27;100.00;102175.44;5134208;28;20019;-77
2023/05/16 01:30:40;;;;;;;10.00;2.30;;;;;;;6.20;100.00;102174.91;5133834;27;20167;-77
2023/05/16 01:33:06;;;;;;;8.45;2.00;;;;;;;6.14;100.00;102180.53;5138608;27;20023;-75
2023/05/16 01:35:32;;;;;;;11.18;2.10;;;;;;;6.08;100.00;102176.38;5137168;27;20080;-74
2023/05/16 01:38:07;;;;;;;12.02;2.40;;;;;;;6.03;100.00;102180.19;5137878;27;20035;-76
2023/05/16 01:40:47;;;;;;;15.10;2.30;;;;;;;5.99;100.00;102182.16;5138147;27;20069;-76
2023/05/16 01:43:16;;;;;;;13.93;2.28;;;;;;;6.04;100.00;102173.97;5137453;27;20027;-75
2023/05/16 01:45:59;;;;;;;13.73;2.13;;;;;;;6.09;100.00;102178.13;5137483;27;20106;-76
2023/05/16 01:48:31;;;;;;;11.35;1.75;;;;;;;6.15;100.00;102179.56;5138555;27;20034;-75
2023/05/16 01:51:00;;;;;;;12.23;1.95;;;;;;;6.12;100.00;102177.94;5137699;27;20054;-76
2023/05/16 01:53:32;;;;;;;10.35;2.42;;;;;;;6.11;100.00;102175.38;5137307;27;20459;-76
2023/05/16 01:55:59;;;;;;;;;;;;;;;6.08;100.00;102180.84;5137756;27;20501;-76
2023/05/16 01:58:29;;;;;;;20.08;2.25;;;;;;;6.07;100.00;102177.31;5137275;27;19919;-76
2023/05/16 02:01:00;;;;;;;16.13;2.30;;;;;;;6.08;100.00;102183.47;5136205;27;20023;-75
2023/05/16 02:03:25;;;;;;;12.95;2.80;;;;;;;6.07;100.00;102187.88;5136444;27;20411;-75
2023/05/16 02:05:51;;;;;;;13.10;2.17;;;;;;;6.06;100.00;102195.88;5137433;27;20110;-75
2023/05/16 02:08:16;;;;;;;11.00;1.80;;;;;;;6.05;100.00;102187.13;5136446;27;20560;-75
2023/05/16 02:10:42;;;;;;;11.68;2.10;;;;;;;6.03;100.00;102189.00;5137019;27;20347;-76
2023/05/16 02:13:07;;;;;;;15.55;2.47;;;;;;;6.04;100.00;102192.47;5136176;27;20035;-76
2023/05/16 02:15:33;;;;;;;11.02;1.80;;;;;;;6.08;100.00;102191.41;5137323;27;20118;-75
2023/05/16 02:17:58;;;;;;;8.02;1.60;;;;;;;6.10;100.00;102184.25;5136598;27;20176;-77
2023/05/16 02:20:24;;;;;;;11.75;1.98;;;;;;;6.07;100.00;102185.25;5137118;27;20470;-74
2023/05/16 02:22:49;;;;;;;12.75;2.28;;;;;;;6.04;100.00;102189.84;5135838;27;20031;-76
2023/05/16 02:25:15;;;;;;;13.75;2.00;;;;;;;6.04;100.00;102192.47;5137070;27;20122;-75
2023/05/16 02:27:41;;;;;;;13.52;1.88;;;;;;;6.06;100.00;102191.47;5137280;27;20038;-77
2023/05/16 02:30:08;;;;;;;12.35;1.73;;;;;;;6.12;100.00;102196.47;5137105;27;20031;-76
2023/05/16 02:32:34;;;;;;;10.68;1.98;;;;;;;6.26;100.00;102190.47;5135638;27;20179;-76
2023/05/16 02:34:59;;;;;;;12.30;2.15;;;;;;;6.39;100.00;102198.63;5137405;27;20087;-76
2023/05/16 02:37:25;;;;;;;11.32;2.60;;;;;;;6.48;100.00;102198.16;5137172;27;20031;-76
2023/05/16 02:39:50;;;;;;;8.35;2.03;;;;;;;6.56;100.00;102197.75;5137404;27;20114;-77
2023/05/16 02:42:15;;;;;;;15.23;2.65;;;;;;;6.56;100.00;102205.69;5136766;27;20059;-76
2023/05/16 02:44:41;;;;;;;12.63;2.47;;;;;;;6.52;100.00;102201.47;5136703;27;20079;-77
2023/05/16 02:47:06;;;;;;;12.02;2.55;;;;;;;6.48;100.00;102198.16;5136578;27;20035;-76
2023/05/16 02:49:31;;;;;;;26.25;3.10;;;;;;;6.45;100.00;102200.09;5137060;27;20027;-76
2023/05/16 02:51:57;;;;;;;11.23;2.15;;;;;;;6.38;100.00;102207.50;5136637;27;20118;-75
2023/05/16 02:54:22;;;;;;;14.15;2.55;;;;;;;6.28;100.00;102204.44;5136271;27;20035;-76
2023/05/16 02:56:48;;;;;;;9.70;2.55;;;;;;;6.22;100.00;102207.41;5136755;27;20363;-77
2023/05/16 02:59:13;;;;;;;14.15;2.22;;;;;;;6.16;100.00;102203.28;5136330;27;20119;-77
2023/05/16 03:01:38;;;;;;;10.63;1.80;;;;;;;6.11;100.00;102202.66;5137033;27;20114;-77
2023/05/16 03:04:04;;;;;;;16.13;2.15;;;;;;;6.09;100.00;102204.53;5136422;27;20481;-77
2023/05/16 03:06:30;;;;;;;12.10;2.30;;;;;;;6.11;100.00;102210.59;5136046;27;20053;-76
2023/05/16 03:08:57;;;;;;;11.68;2.28;;;;;;;6.13;100.00;102205.22;5136630;27;20051;-76
2023/05/16 03:11:23;;;;;;;12.25;1.70;;;;;;;6.18;100.00;102216.44;5136228;27;20058;-76
2023/05/16 03:13:49;;;;;;;11.10;2.03;;;;;;;6.25;100.00;102209.03;5136377;27;20084;-77
2023/05/16 03:16:15;;;;;;;13.73;1.90;;;;;;;6.33;100.00;102214.81;5135913;27;20027;-76
2023/05/16 03:18:41;;;;;;;8.70;2.00;;;;;;;6.38;100.00;102217.22;5136386;27;20051;-76
2023/05/16 03:21:06;;;;;;;8.80;1.83;;;;;;;6.38;100.00;102219.88;5136197;27;20089;-76
2023/05/16 03:23:32;;;;;;;9.90;2.10;;;;;;;6.33;100.00;102213.00;5136194;27;20039;-76
2023/05/16 03:25:58;;;;;;;18.10;2.33;;;;;;;6.30;100.00;102222.88;5136935;27;20118;-76
2023/05/16 03:28:23;;;;;;;9.38;2.03;;;;;;;6.30;100.00;102221.09;5135646;27;20098;-76
2023/05/16 03:30:48;;;;;;;17.15;2.33;;;;;;;6.43;100.00;102231.03;5136312;27;20035;-77
2023/05/16 03:33:14;;;;;;;10.70;1.63;;;;;;;6.53;100.00;102225.19;5134764;27;20470;-76
2023/05/16 03:35:40;;;;;;;11.40;2.30;;;;;;;6.63;100.00;102216.81;5134420;27;20512;-76
2023/05/16 03:38:05;;;;;;;6.65;1.70;;;;;;;6.66;100.00;102216.66;5135612;27;20035;-77
2023/05/16 03:40:31;;;;;;;9.18;1.83;;;;;;;6.67;100.00;102221.88;5134921;27;20039;-77
2023/05/16 03:42:56;;;;;;;13.60;2.20;;;;;;;6.71;100.00;102226.03;5135357;27;20418;-77
2023/05/16 03:45:21;;;;;;;10.60;2.20;;;;;;;6.74;100.00;102235.63;5134316;27;20084;-77
2023/05/16 03:47:50;;;;;;;12.38;2.15;;;;;;;6.78;100.00;102231.88;5135507;27;20095;-76
2023/05/16 03:50:16;;;;;;;16.13;2.22;;;;;;;6.81;100.00;102237.00;5135603;27;20035;-78
2023/05/16 03:52:41;;;;;;;11.25;1.83;;;;;;;6.81;100.00;102233.50;5135253;27;20382;-75
2023/05/16 03:55:07;;;;;;;11.90;2.38;;;;;;;6.78;100.00;102236.31;5134875;27;20073;-76
2023/05/16 03:57:33;;;;;;;11.63;1.75;;;;;;;6.74;100.00;102237.41;5135536;27;20062;-77
2023/05/16 03:59:59;;;;;;;10.38;1.95;;;;;;;6.68;100.00;102234.13;5135068;27;20058;-75
2023/05/16 04:02:25;;;;;;;11.32;2.05;;;;;;;6.63;100.00;102235.34;5135140;27;20039;-75
2023/05/16 04:04:50;;;;;;;8.40;1.73;;;;;;;6.60;100.00;102238.09;5135027;27;20027;-76
2023/05/16 04:07:16;;;;;;;8.60;1.95;;;;;;;6.57;100.00;102233.84;5135024;27;20051;-76
2023/05/16 04:09:41;;;;;;;5.50;1.27;;;;;;;6.53;100.00;102242.88;5135397;27;20487;-76
2023/05/16 04:12:07;;;;;;;16.23;1.90;;;;;;;6.50;100.00;102240.38;5134560;27;20177;-75
2023/05/16 04:14:33;;;;;;;7.25;1.67;;;;;;;6.54;100.00;102241.94;5133825;27;20490;-76
2023/05/16 04:16:59;;;;;;;10.50;1.55;;;;;;;6.59;100.00;102241.72;5133608;27;20039;-76
2023/05/16 04:19:24;;;;;;;16.10;2.40;;;;;;;6.64;100.00;102234.38;5134899;27;20077;-76
2023/05/16 04:21:51;;;;;;;10.75;1.63;;;;;;;6.70;100.00;102239.34;5135041;27;20106;-76
2023/05/16 04:24:16;;;;;;;11.63;1.83;;;;;;;6.75;100.00;102239.09;5134616;27;20127;-76
2023/05/16 04:26:41;;;;;;;10.35;2.00;;;;;;;6.78;100.00;102244.25;5135501;27;20042;-76
2023/05/16 04:29:07;;;;;;;7.78;1.60;;;;;;;6.82;100.00;102246.66;5134743;27;20440;-76
2023/05/16 04:31:32;;;;;;;8.18;1.70;;;;;;;6.88;100.00;102245.47;5134775;27;20100;-76
2023/05/16 04:33:57;;;;;;;8.80;1.67;;;;;;;6.93;100.00;102251.38;5134459;27;20042;-76
2023/05/16 04:36:23;;;;;;;11.80;2.08;;;;;;;7.00;100.00;102249.25;5133382;27;20092;-76
2023/05/16 04:38:48;;;;;;;9.13;1.70;;;;;;;7.01;100.00;102250.97;5134412;27;20409;-76
2023/05/16 04:41:14;;;;;;;11.38;2.08;;;;;;;7.04;100.00;102249.00;5134339;27;20055;-76
2023/05/16 04:43:40;;;;;;;14.25;1.60;;;;;;;7.09;100.00;102251.44;5134040;27;20487;-77
2023/05/16 04:46:06;;;;;;;9.80;1.85;;;;;;;7.09;100.00;102251.44;5133880;27;20046;-75
2023/05/16 04:48:32;;;;;;;12.70;1.38;;;;;;;7.03;100.00;102257.03;5133710;27;20027;-75
2023/05/16 04:50:58;;;;;;;9.05;1.55;;;;;;;6.99;100.00;102252.84;5133292;27;20057;-76
2023/05/16 04:53:23;;;;;;;10.20;1.70;;;;;;;6.99;100.00;102260.78;5134829;27;20031;-76
2023/05/16 04:55:48;;;;;;;9.15;1.70;;;;;;;7.00;100.00;102265.13;5134274;27;20072;-76
2023/05/16 04:58:14;;;;;;;8.80;1.88;;;;;;;6.97;100.00;102271.47;5133936;27;20084;-76
2023/05/16 05:00:40;;;;;;;9.07;1.50;;;;;;;7.01;100.00;102273.00;5134081;27;20486;-77
2023/05/16 05:03:06;;;;;;;6.43;1.25;;;;;;;7.08;100.00;102270.88;5133990;27;20485;-77
2023/05/16 05:05:31;;;;;;;7.75;1.55;;;;;;;7.17;100.00;102280.97;5132995;27;20038;-77
2023/05/16 05:07:57;;;;;;;6.85;1.50;;;;;;;7.28;100.00;102280.41;5134561;27;20050;-77
2023/05/16 05:10:22;;;;;;;9.30;1.55;;;;;;;7.40;100.00;102281.53;5132765;27;20475;-78
2023/05/16 05:12:47;;;;;;;7.75;1.58;;;;;;;7.51;100.00;102286.25;5133937;27;20028;-78
2023/05/16 05:15:13;;;;;;;12.02;2.00;;;;;;;7.62;100.00;102280.38;5133617;27;20049;-77
2023/05/16 05:17:38;;;;;;;6.38;1.40;;;;;;;7.72;100.00;102285.06;5115456;28;20080;-78
2023/05/16 05:20:07;;;;;;;7.03;1.40;;;;;;;7.82;100.00;102281.91;5133540;27;20067;-78
2023/05/16 05:22:33;;;;;;;9.48;1.52;;;;;;;7.91;100.00;102284.03;5134387;27;20031;-79
2023/05/16 05:24:58;;;;;;;7.93;1.52;;;;;;;7.98;100.00;102289.88;5134371;27;20034;-78
2023/05/16 05:27:24;;;;;;;8.60;1.60;;;;;;;8.05;100.00;102292.06;5134016;27;20034;-78
2023/05/16 05:29:49;;;;;;;16.42;2.47;;;;;;;8.12;100.00;102285.50;5133804;27;20442;-78
2023/05/16 05:32:15;;;;;;;8.90;1.85;;;;;;;8.23;100.00;102289.31;5133700;28;20039;-78
2023/05/16 05:34:40;;;;;;;9.43;1.63;;;;;;;8.34;100.00;102294.00;5133770;27;20099;-76
2023/05/16 05:37:05;;;;;;;6.22;1.27;;;;;;;8.46;100.00;102295.97;5133862;27;20084;-77
2023/05/16 05:39:31;;;;;;;6.43;1.52;;;;;;;8.55;100.00;102289.25;5132675;28;20035;-77
2023/05/16 05:41:57;;;;;;;9.98;1.75;;;;;;;8.59;100.00;102296.09;5133794;27;20352;-77
2023/05/16 05:44:22;;;;;;;11.40;1.63;;;;;;;8.50;100.00;102299.31;5133777;27;20050;-79
2023/05/16 05:46:48;;;;;;;12.80;1.67;;;;;;;8.54;100.00;102306.13;5133423;27;20027;-76
2023/05/16 05:49:13;;;;;;;11.20;1.70;;;;;;;8.67;100.00;102306.25;5133714;28;20046;-77
2023/05/16 05:51:39;;;;;;;13.45;1.88;;;;;;;8.75;100.00;102307.53;5133599;27;20047;-77
2023/05/16 05:54:05;;;;;;;6.57;1.80;;;;;;;8.83;100.00;102309.72;5133695;27;20031;-77
2023/05/16 05:56:30;;;;;;;6.47;1.58;;;;;;;8.86;100.00;102306.03;5133867;27;20027;-78
2023/05/16 05:58:55;;;;;;;6.28;1.15;;;;;;;8.89;100.00;102306.69;5133476;28;20035;-77
2023/05/16 06:01:21;;;;;;;5.28;1.33;;;;;;;8.93;100.00;102310.88;5133500;27;20059;-76
2023/05/16 06:03:47;;;;;;;6.63;1.52;;;;;;;9.02;100.00;102311.25;5133510;27;20028;-77
2023/05/16 06:06:13;;;;;;;9.50;1.50;;;;;;;9.15;100.00;102321.06;5133469;28;20106;-77
2023/05/16 06:08:39;;;;;;;6.07;1.30;;;;;;;9.33;100.00;102316.41;5133760;27;20051;-77
2023/05/16 06:11:05;;;;;;;7.50;1.67;;;;;;;9.57;100.00;102334.44;5133496;27;20047;-77
2023/05/16 06:13:30;;;;;;;7.68;1.23;;;;;;;9.75;100.00;102328.88;5133701;28;20459;-76
2023/05/16 06:15:55;;;;;;;9.15;1.73;;;;;;;9.78;100.00;102320.72;5133487;27;20047;-76
2023/05/16 06:18:21;;;;;;;6.50;1.50;;;;;;;9.76;100.00;102320.81;5135818;27;20102;-77
2023/05/16 06:20:46;;;;;;;9.95;1.50;;;;;;;9.78;100.00;102318.06;5135971;27;20031;-77
2023/05/16 06:23:12;;;;;;;7.80;1.88;;;;;;;9.71;100.00;102320.25;5137652;27;20027;-77
2023/05/16 06:25:37;;;;;;;8.27;1.75;;;;;;;9.64;100.00;102325.13;5137705;27;20035;-76
2023/05/16 06:28:02;;;;;;;8.57;1.70;;;;;;;9.69;100.00;102325.69;5135843;27;20080;-78
2023/05/16 06:30:28;;;;;;;4.30;1.30;;;;;;;9.69;100.00;102331.00;5137186;27;20035;-77
2023/05/16 06:32:53;;;;;;;7.13;1.33;;;;;;;9.71;100.00;102339.72;5137341;27;20102;-76
2023/05/16 06:35:19;;;;;;;8.85;1.75;;;;;;;9.86;100.00;102337.03;5137311;27;20181;-77
2023/05/16 06:37:44;;;;;;;11.60;1.88;;;;;;;10.12;100.00;102331.84;5136971;27;20066;-77
2023/05/16 06:40:10;;;;;;;4.65;1.20;;;;;;;10.23;100.00;102329.34;5137171;27;20033;-76
2023/05/16 06:42:36;;;;;;;6.88;1.70;;;;;;;10.16;100.00;102328.88;5136826;27;20062;-77
2023/05/16 06:45:01;;;;;;;8.80;1.55;;;;;;;10.11;100.00;102333.66;5136922;27;20088;-76
2023/05/16 06:47:26;;;;;;;4.18;1.27;;;;;;;10.20;100.00;102337.53;5136332;27;20035;-76
2023/05/16 06:49:52;;;;;;;9.10;1.50;;;;;;;10.28;100.00;102337.03;5136598;27;20117;-75
2023/05/16 06:52:17;;;;;;;9.15;1.58;;;;;;;10.37;100.00;102333.78;5136815;27;20118;-77
2023/05/16 06:54:43;;;;;;;5.30;1.40;;;;;;;10.45;100.00;102344.78;5136540;27;20368;-76
2023/05/16 06:57:08;;;;;;;10.15;1.75;;;;;;;10.51;100.00;102344.38;5136557;27;20031;-76
2023/05/16 06:59:34;;;;;;;12.15;2.05;;;;;;;10.65;100.00;102338.13;5136295;27;20061;-77
2023/05/16 07:02:00;;;;;;;7.45;1.25;;;;;;;10.70;100.00;102335.16;5136733;27;20447;-76
2023/05/16 07:04:26;;;;;;;8.25;1.50;;;;;;;10.87;100.00;102331.38;5136277;27;20110;-77
2023/05/16 07:06:52;;;;;;;7.80;1.50;;;;;;;10.94;100.00;102338.84;5135904;27;20513;-77
2023/05/16 07:09:18;;;;;;;4.32;1.48;;;;;;;10.91;100.00;102344.38;5136451;27;20043;-77
2023/05/16 07:11:43;;;;;;;7.20;1.23;;;;;;;10.98;100.00;102335.97;5136560;27;20080;-76
2023/05/16 07:14:08;;;;;;;7.68;1.40;;;;;;;11.07;100.00;102345.97;5136002;27;20133;-76
2023/05/16 07:16:34;;;;;;;6.47;1.70;;;;;;;11.21;100.00;102347.69;5136006;27;20490;-76
2023/05/16 07:19:00;;;;;;;10.70;2.30;;;;;;;11.28;100.00;102351.63;5136248;27;20123;-79
2023/05/16 07:21:25;;;;;;;4.90;1.15;;;;;;;11.05;100.00;102355.88;5136048;27;20031;-77
2023/05/16 07:23:51;;;;;;;6.63;1.48;;;;;;;10.83;100.00;102353.84;5136302;27;20401;-77
2023/05/16 07:26:16;;;;;;;6.25;1.30;;;;;;;10.74;100.00;102360.63;5135839;27;20037;-77
2023/05/16 07:28:42;;;;;;;8.07;1.40;;;;;;;10.70;100.00;102354.66;5134924;27;20115;-77
2023/05/16 07:31:07;;;;;;;9.60;1.60;;;;;;;10.66;100.00;102365.59;5135412;27;20439;-76
2023/05/16 07:33:33;;;;;;;6.68;1.35;;;;;;;10.74;100.00;102353.47;5135387;27;20058;-76
2023/05/16 07:35:58;;;;;;;9.50;1.40;;;;;;;10.87;100.00;102358.84;5135820;27;20031;-77
2023/05/16 07:38:24;;;;;;;6.10;1.73;;;;;;;11.05;100.00;102356.72;5135655;27;20035;-76
2023/05/16 07:40:50;;;;;;;5.05;1.20;;;;;;;11.17;100.00;102364.84;5134254;27;20035;-76
2023/05/16 07:43:15;;;;;;;6.43;1.30;;;;;;;11.26;100.00;102359.72;5135517;27;20035;-79
2023/05/16 07:45:40;;;;;;;4.45;1.42;;;;;;;11.32;100.00;102360.28;5135531;27;20394;-76
2023/05/16 07:48:06;;;;;;;6.47;1.42;;;;;;;11.40;100.00;102363.25;5135903;27;20027;-77
2023/05/16 07:50:31;;;;;;;5.18;1.40;;;;;;;11.44;100.00;102362.91;5135179;27;20368;-77
2023/05/16 07:52:56;;;;;;;6.50;1.35;;;;;;;11.56;100.00;102377.19;5135196;27;20106;-76
2023/05/16 07:55:22;;;;;;;5.03;1.25;;;;;;;11.61;100.00;102376.88;5135377;27;20309;-76
2023/05/16 07:57:48;;;;;;;5.63;1.10;;;;;;;11.62;100.00;102374.09;5135630;27;20031;-76
2023/05/16 08:00:14;;;;;;;4.15;1.35;;;;;;;11.65;100.00;102376.53;5135058;27;20031;-76
2023/05/16 08:02:40;;;;;;;5.40;1.50;;;;;;;11.71;100.00;102372.59;5134855;27;20041;-76
2023/05/16 08:05:06;;;;;;;11.05;2.17;;;;;;;11.70;100.00;102378.88;5135714;27;20033;-78
2023/05/16 08:07:32;;;;;;;6.13;1.90;;;;;;;11.52;100.00;102388.19;5134474;27;20487;-77
2023/05/16 08:09:57;;;;;;;6.82;1.42;;;;;;;11.42;100.00;102386.16;5134917;27;20079;-77
2023/05/16 08:12:23;;;;;;;6.70;1.23;;;;;;;11.41;100.00;102381.78;5134973;27;20027;-77
2023/05/16 08:14:48;;;;;;;9.73;1.33;;;;;;;11.54;100.00;102389.78;5135078;27;20038;-76
2023/05/16 08:17:14;;;;;;;12.00;2.03;;;;;;;11.74;100.00;102390.19;5134718;27;20024;-77
2023/05/16 08:19:40;;;;;;;7.40;1.70;;;;;;;12.04;100.00;102395.16;5134671;27;20031;-76
2023/05/16 08:22:06;;;;;;;7.82;1.45;;;;;;;12.14;100.00;102390.88;5133425;27;20031;-76
2023/05/16 08:24:32;;;;;;;5.45;1.20;;;;;;;12.16;100.00;102398.78;5134882;27;20064;-76
2023/05/16 08:26:57;;;;;;;7.90;1.13;;;;;;;12.19;100.00;102390.53;5134749;27;20035;-76
2023/05/16 08:29:22;;;;;;;5.18;1.15;;;;;;;12.27;100.00;102395.31;5134245;27;20027;-77
2023/05/16 08:31:48;;;;;;;6.68;1.60;;;;;;;12.20;100.00;102394.09;5134471;27;20073;-77
2023/05/16 08:34:13;;;;;;;6.70;1.15;;;;;;;12.22;100.00;102397.47;5134949;27;20035;-76
2023/05/16 08:36:39;;;;;;;9.40;1.40;;;;;;;12.67;100.00;102390.56;5134739;27;20477;-76
2023/05/16 08:39:04;;;;;;;8.48;1.38;;;;;;;13.07;100.00;102392.03;5135026;27;20031;-77
2023/05/16 08:41:30;;;;;;;6.45;1.40;;;;;;;12.81;98.09;102391.34;5134462;27;20062;-77
2023/05/16 08:43:56;;;;;;;7.07;1.80;;;;;;;12.38;100.00;102389.22;5134768;27;20133;-76
2023/05/16 08:46:22;;;;;;;6.28;1.33;;;;;;;12.38;100.00;102391.88;5134717;27;20156;-77
2023/05/16 08:48:53;;;;;;;6.05;1.25;;;;;;;12.93;100.00;102386.88;5135029;27;20126;-76
2023/05/16 08:51:23;;;;;;;5.00;0.90;;;;;;;13.11;99.18;102387.31;5134570;27;20106;-76
2023/05/16 08:54:10;;;;;;;9.55;2.05;;;;;;;13.56;91.31;102385.56;5134848;27;20031;-77
2023/05/16 08:56:37;;;;;;;11.20;1.40;;;;;;;14.04;91.75;102381.75;5135030;27;20031;-77
2023/05/16 08:59:03;;;;;;;8.40;1.83;;;;;;;14.69;87.97;102387.22;5134437;27;20069;-76
2023/05/16 09:01:30;;;;;;;8.93;1.30;;;;;;;14.73;83.37;102385.94;5132918;27;20154;-76
2023/05/16 09:03:57;;;;;;;7.53;1.83;;;;;;;14.58;79.27;102398.75;5134288;27;20034;-77
2023/05/16 09:06:22;;;;;;;7.07;1.45;;;;;;;14.68;74.69;102398.88;5134357;27;20035;-76
2023/05/16 09:08:48;;;;;;;5.72;1.13;;;;;;;14.85;73.29;102404.66;5134329;27;20054;-76
2023/05/16 09:11:13;;;;;;;7.72;1.80;;;;;;;14.45;73.63;102415.00;5132618;27;20039;-77
2023/05/16 09:13:39;;;;;;;6.82;1.73;;;;;;;14.10;79.68;102413.38;5133932;27;20031;-76
2023/05/16 09:16:12;;;;;;;3.17;1.00;;;;;;;14.11;76.89;102409.72;5133905;27;20467;-77
2023/05/16 09:18:39;;;;;;;3.45;1.25;;;;;;;13.91;87.47;102403.31;5133808;27;20121;-76
2023/05/16 09:21:06;;;;;;;6.13;1.20;;;;;;;14.72;78.91;102403.03;5133786;27;20038;-76
2023/05/16 09:23:32;;;;;;;4.50;1.15;;;;;;;15.05;70.55;102400.28;5133952;27;20028;-77
2023/05/16 09:25:58;;;;;;;5.78;1.42;;;;;;;15.83;69.18;102398.06;5133828;27;20035;-77
2023/05/16 09:28:25;;;;;;;8.27;1.45;;;;;;;16.27;63.61;102408.50;5133805;27;20088;-75
2023/05/16 09:30:51;;;;;;;8.15;1.58;;;;;;;16.44;63.73;102412.34;5134077;27;20058;-75
2023/05/16 09:33:16;;;;;;;6.57;1.30;;;;;;;17.02;61.22;102407.00;5132481;28;20118;-75
2023/05/16 09:35:42;;;;;;;5.40;1.20;;;;;;;17.74;56.09;102403.81;5133756;27;20539;-76
2023/05/16 09:38:14;;;;;;;8.35;1.60;;;;;;;18.42;55.73;102402.59;5133498;28;20039;-76
2023/05/16 09:40:40;;;;;;;7.65;1.30;;;;;;;18.71;53.33;102409.63;5133667;27;20512;-77
2023/05/16 09:43:07;;;;;;;7.63;1.23;;;;;;;18.92;50.52;102410.16;5134832;27;20028;-75
2023/05/16 09:45:34;;;;;;;5.50;1.65;;;;;;;18.92;49.86;102402.06;5133678;27;20031;-76
2023/05/16 09:48:07;;;;;;;8.32;1.63;;;;;;;18.11;52.53;102413.75;5133562;27;20043;-76
2023/05/16 09:50:34;;;;;;;5.70;1.30;;;;;;;17.53;53.22;102418.34;5134186;27;20031;-77
2023/05/16 09:53:00;;;;;;;8.43;1.48;;;;;;;17.52;53.52;102419.34;5135840;27;20103;-77
2023/05/16 09:55:26;;;;;;;9.82;1.25;;;;;;;17.47;52.57;102420.78;5137128;27;20027;-77
2023/05/16 09:57:51;;;;;;;8.07;1.80;;;;;;;18.06;51.83;102416.03;5137883;27;20103;-77
2023/05/16 10:00:17;;;;;;;5.45;1.38;;;;;;;17.88;54.00;102416.78;5137330;27;20190;-76
2023/05/16 10:02:43;;;;;;;6.00;1.10;;;;;;;16.96;55.16;102417.47;5136092;27;20023;-78
2023/05/16 10:05:08;;;;;;;6.03;1.10;;;;;;;16.43;57.42;102424.06;5137154;27;20039;-76
2023/05/16 10:07:34;;;;;;;8.77;1.30;;;;;;;15.98;58.34;102420.84;5137896;27;20061;-78
2023/05/16 10:10:05;;;;;;;4.43;0.93;;;;;;;16.52;58.72;102425.91;5137733;27;20039;-77
2023/05/16 10:12:32;;;;;;;5.65;1.48;;;;;;;17.15;56.44;102422.81;5137615;27;20034;-77
2023/05/16 10:15:02;;;;;;;5.68;1.63;;;;;;;17.15;52.70;102425.50;5137673;27;20027;-77
2023/05/16 10:17:31;;;;;;;6.32;1.02;;;;;;;17.60;52.27;102423.97;5137715;27;20039;-76
2023/05/16 10:19:56;;;;;;;4.28;1.23;;;;;;;18.06;53.09;102410.63;5138082;27;20031;-76
2023/05/16 10:22:23;;;;;;;4.68;1.10;;;;;;;18.10;52.56;102414.72;5137199;27;20416;-76
2023/05/16 10:24:55;;;;;;;7.65;1.65;;;;;;;17.86;54.83;102418.78;5137091;27;20039;-77
2023/05/16 10:27:22;;;;;;;8.25;1.73;;;;;;;17.79;53.04;102421.22;5137747;27;20459;-78
2023/05/16 10:29:48;;;;;;;5.32;1.20;;;;;;;17.00;51.95;102414.34;5135999;27;20499;-78
2023/05/16 10:32:15;;;;;;;6.63;1.60;;;;;;;17.08;53.98;102414.47;5137452;27;20038;-77
2023/05/16 10:34:41;;;;;;;6.75;1.42;;;;;;;17.90;53.72;102400.50;5136295;27;20038;-78
2023/05/16 10:37:07;;;;;;;3.65;1.20;;;;;;;18.75;49.38;102406.47;5135735;27;20028;-77
2023/05/16 10:39:33;;;;;;;7.13;1.05;;;;;;;18.42;49.95;102406.16;5136655;27;20111;-77
2023/05/16 10:41:59;;;;;;;6.90;1.50;;;;;;;18.66;53.40;102397.47;5136535;27;20051;-76
2023/05/16 10:44:25;;;;;;;6.60;1.20;;;;;;;18.85;49.67;102395.56;5137196;27;20473;-76
2023/05/16 10:46:50;;;;;;;7.55;1.48;;;;;;;18.74;51.74;102406.63;5136169;27;20031;-76
2023/05/16 10:49:23;;;;;;;4.05;1.42;;;;;;;19.29;50.68;102402.88;5136808;27;20023;-76
2023/05/16 10:52:06;;;;;;;4.38;1.30;;;;;;;19.57;47.69;102403.50;5137488;27;20034;-76
2023/05/16 10:54:48;;;;;;;6.68;1.40;;;;;;;19.48;47.53;102404.47;5137209;27;20035;-76
2023/05/16 10:57:22;;;;;;;6.78;1.30;;;;;;;20.04;48.01;102399.53;5135327;27;20027;-76
2023/05/16 10:59:50;;;;;;;5.15;1.48;;;;;;;19.85;46.19;102395.22;5136685;27;20031;-76
2023/05/16 11:02:31;;;;;;;6.32;1.25;;;;;;;19.89;46.11;102394.75;5136586;27;20027;-76
2023/05/16 11:04:59;;;;;;;5.47;1.40;;;;;;;19.54;46.05;102402.00;5134873;27;20089;-76
2023/05/16 11:07:30;;;;;;;5.45;1.42;;;;;;;19.07;46.58;102393.44;5137337;27;20066;-78
2023/05/16 11:10:03;;;;;;;7.10;1.27;;;;;;;19.44;45.54;102398.56;5136068;27;20091;-76
2023/05/16 11:12:44;;;;;;;5.22;1.20;;;;;;;19.91;47.70;102394.56;5136007;27;20027;-75
2023/05/16 11:15:31;;;;;;;3.47;1.07;;;;;;;20.54;45.38;102395.06;5136280;27;20019;-76
2023/05/16 11:18:22;;;;;;;3.92;1.10;;;;;;;20.40;46.03;102392.00;5136148;27;20034;-78
2023/05/16 11:20:51;;;;;;;4.20;1.13;;;;;;;19.64;45.51;102388.34;5132643;27;20129;-76